createdAt,value
2018-12-17T00:00:33.538Z,10.40
2018-12-17T00:03:07.112Z,10.18
2018-12-17T00:05:41.884Z,9.05
2018-12-17T00:08:14.384Z,11.30
2018-12-17T00:10:48.244Z,13.00
2018-12-17T00:13:21.810Z,11.98
2018-12-17T00:15:55.640Z,14.55
2018-12-17T00:18:29.207Z,12.30
2018-12-17T00:21:02.896Z,13.55
2018-12-17T00:23:36.498Z,13.80
2018-12-17T00:26:10.843Z,12.48
2018-12-17T00:28:44.458Z,13.60
2018-12-17T00:31:18.043Z,14.85
2018-12-17T00:33:51.660Z,14.30
2018-12-17T00:36:25.959Z,13.48
2018-12-17T00:38:59.736Z,14.52
2018-12-17T00:41:33.367Z,15.65
2018-12-17T00:44:06.940Z,13.45
2018-12-17T00:46:40.491Z,13.93
2018-12-17T00:49:14.167Z,14.07
2018-12-17T00:51:47.790Z,13.75
2018-12-17T00:54:21.422Z,11.95
2018-12-17T00:56:55.121Z,13.80
2018-12-17T00:59:28.785Z,12.80
2018-12-17T01:02:02.329Z,12.63
2018-12-17T01:04:35.878Z,11.98
2018-12-17T01:07:09.479Z,12.50
2018-12-17T01:09:44.722Z,11.77
2018-12-17T01:12:18.327Z,12.27
2018-12-17T01:14:52.065Z,11.12
2018-12-17T01:17:25.762Z,11.43
2018-12-17T01:20:00.066Z,12.20
2018-12-17T01:22:34.349Z,10.57
2018-12-17T01:25:07.949Z,12.52
2018-12-17T01:27:41.682Z,9.32
2018-12-17T01:30:15.988Z,9.45
2018-12-17T01:32:49.631Z,11.40
2018-12-17T01:35:23.327Z,9.32
2018-12-17T01:37:57.139Z,8.95
2018-12-17T01:40:30.661Z,10.65
2018-12-17T01:43:04.234Z,8.88
2018-12-17T01:45:38.011Z,10.20
2018-12-17T01:48:11.646Z,9.73
2018-12-17T01:50:45.410Z,8.60
2018-12-17T01:53:19.010Z,10.23
2018-12-17T01:55:53.445Z,10.73
2018-12-17T01:58:29.298Z,9.88
2018-12-17T02:01:01.198Z,10.23
2018-12-17T02:03:35.506Z,10.35
2018-12-17T02:06:09.087Z,10.50
2018-12-17T02:08:43.587Z,10.60
2018-12-17T02:11:17.111Z,11.98
2018-12-17T02:13:50.650Z,10.93
2018-12-17T02:16:24.320Z,12.77
2018-12-17T02:18:58.040Z,11.10
2018-12-17T02:21:31.615Z,10.40
2018-12-17T02:24:06.145Z,10.00
2018-12-17T02:26:40.017Z,10.40
2018-12-17T02:29:13.602Z,9.70
2018-12-17T02:31:47.302Z,10.07
2018-12-17T02:34:21.507Z,11.43
2018-12-17T02:36:55.868Z,8.82
2018-12-17T02:39:30.307Z,10.40
2018-12-17T02:42:03.899Z,10.02
2018-12-17T02:44:38.441Z,10.10
2018-12-17T02:47:12.812Z,9.27
2018-12-17T02:49:47.270Z,11.30
2018-12-17T02:52:21.055Z,10.88
2018-12-17T02:54:54.590Z,11.57
2018-12-17T02:57:28.260Z,11.88
2018-12-17T03:00:01.863Z,11.10
2018-12-17T03:02:35.429Z,11.90
2018-12-17T03:05:09.037Z,12.02
2018-12-17T03:07:42.566Z,10.82
2018-12-17T03:10:16.164Z,12.13
2018-12-17T03:12:50.016Z,12.57
2018-12-17T03:15:23.659Z,11.38
2018-12-17T03:17:57.638Z,10.88
2018-12-17T03:20:31.428Z,11.27
2018-12-17T03:23:04.989Z,10.07
2018-12-17T03:25:38.657Z,12.48
2018-12-17T03:28:12.298Z,11.70
2018-12-17T03:30:46.596Z,11.73
2018-12-17T03:33:20.324Z,11.40
2018-12-17T03:35:54.062Z,13.15
2018-12-17T03:38:27.804Z,11.50
2018-12-17T03:41:01.297Z,12.50
2018-12-17T03:43:34.937Z,12.82
2018-12-17T03:46:08.542Z,12.75
2018-12-17T03:48:42.116Z,12.82
2018-12-17T03:51:15.787Z,11.55
2018-12-17T03:53:49.287Z,12.40
2018-12-17T03:56:22.920Z,13.25
2018-12-17T03:58:59.452Z,12.75
2018-12-17T04:01:30.348Z,12.73
2018-12-17T04:04:03.915Z,11.68
2018-12-17T04:06:38.251Z,12.85
2018-12-17T04:09:11.798Z,10.95
2018-12-17T04:11:46.307Z,12.05
2018-12-17T04:14:20.116Z,10.93
2018-12-17T04:16:54.522Z,12.52
2018-12-17T04:19:28.250Z,11.35
2018-12-17T04:22:02.624Z,11.00
2018-12-17T04:24:36.243Z,9.93
2018-12-17T04:27:09.754Z,10.63
2018-12-17T04:29:43.482Z,11.82
2018-12-17T04:32:17.164Z,10.15
2018-12-17T04:34:51.645Z,10.45
2018-12-17T04:37:26.026Z,10.88
2018-12-17T04:39:59.657Z,11.02
2018-12-17T04:42:33.235Z,11.93
2018-12-17T04:45:06.780Z,11.70
2018-12-17T04:47:40.343Z,11.30
2018-12-17T04:50:13.862Z,11.15
2018-12-17T04:52:47.704Z,11.73
2018-12-17T04:55:21.280Z,11.82
2018-12-17T04:57:55.119Z,11.05
2018-12-17T05:00:29.425Z,10.10
2018-12-17T05:03:03.049Z,12.90
2018-12-17T05:05:37.516Z,10.88
2018-12-17T05:08:11.142Z,12.37
2018-12-17T05:10:44.973Z,10.57
2018-12-17T05:13:18.750Z,11.70
2018-12-17T05:15:52.348Z,10.80
2018-12-17T05:18:25.954Z,11.60
2018-12-17T05:20:59.551Z,10.70
2018-12-17T05:23:33.335Z,10.93
2018-12-17T05:26:07.096Z,9.40
2018-12-17T05:28:40.819Z,11.05
2018-12-17T05:31:14.491Z,11.50
2018-12-17T05:33:48.174Z,10.13
2018-12-17T05:36:21.771Z,9.80
2018-12-17T05:38:55.451Z,10.93
2018-12-17T05:41:29.083Z,9.60
2018-12-17T05:44:03.376Z,9.45
2018-12-17T05:46:37.822Z,12.27
2018-12-17T05:49:11.465Z,11.32
2018-12-17T05:51:45.003Z,10.48
2018-12-17T05:54:18.607Z,9.35
2018-12-17T05:56:52.339Z,15.40
2018-12-17T05:59:28.672Z,10.70
2018-12-17T06:01:59.695Z,10.43
2018-12-17T06:04:33.379Z,11.65
2018-12-17T06:07:07.833Z,10.35
2018-12-17T06:09:41.469Z,9.02
2018-12-17T06:12:15.140Z,9.35
2018-12-17T06:14:48.796Z,8.40
2018-12-17T06:17:23.186Z,10.77
2018-12-17T06:19:56.711Z,9.48
2018-12-17T06:22:30.636Z,10.35
2018-12-17T06:25:04.364Z,9.32
2018-12-17T06:27:38.969Z,11.43
2018-12-17T06:30:12.575Z,10.48
2018-12-17T06:32:46.230Z,8.52
2018-12-17T06:35:19.825Z,9.63
2018-12-17T06:37:53.403Z,9.70
2018-12-17T06:40:27.185Z,10.27
2018-12-17T06:43:00.822Z,10.10
2018-12-17T06:45:34.355Z,9.90
2018-12-17T06:48:08.033Z,10.15
2018-12-17T06:50:41.871Z,9.57
2018-12-17T06:53:15.578Z,8.60
2018-12-17T06:55:49.140Z,9.50
2018-12-17T06:58:22.774Z,10.45
2018-12-17T07:00:56.635Z,10.13
2018-12-17T07:03:30.498Z,9.45
2018-12-17T07:06:04.783Z,9.57
2018-12-17T07:08:38.530Z,10.82
2018-12-17T07:11:12.313Z,9.80
2018-12-17T07:13:45.989Z,17.80
2018-12-17T07:16:19.596Z,9.30
2018-12-17T07:18:53.247Z,7.22
2018-12-17T07:21:26.980Z,8.98
2018-12-17T07:24:01.444Z,8.68
2018-12-17T07:26:35.142Z,19.45
2018-12-17T07:29:08.761Z,9.85
2018-12-17T07:31:43.922Z,9.10
2018-12-17T07:34:17.487Z,9.00
2018-12-17T07:36:51.368Z,8.75
2018-12-17T07:39:25.101Z,8.80
2018-12-17T07:41:59.534Z,9.43
2018-12-17T07:44:33.332Z,7.70
2018-12-17T07:47:07.155Z,8.40
2018-12-17T07:49:40.751Z,7.72
2018-12-17T07:52:15.342Z,8.52
2018-12-17T07:54:49.005Z,7.43
2018-12-17T07:57:22.666Z,6.70
2018-12-17T07:59:56.794Z,10.60
2018-12-17T08:02:29.980Z,9.75
2018-12-17T08:05:03.530Z,9.20
2018-12-17T08:07:37.873Z,7.45
2018-12-17T08:10:11.599Z,10.30
2018-12-17T08:12:46.211Z,9.30
2018-12-17T08:15:20.014Z,8.77
2018-12-17T08:18:05.468Z,7.80
2018-12-17T08:20:39.267Z,8.57
2018-12-17T08:23:13.078Z,7.60
2018-12-17T08:25:46.612Z,8.48
2018-12-17T08:28:20.223Z,7.35
2018-12-17T08:30:58.506Z,7.32
2018-12-17T08:33:32.288Z,7.47
2018-12-17T08:36:05.854Z,9.65
2018-12-17T08:38:41.427Z,7.43
2018-12-17T08:41:15.843Z,9.48
2018-12-17T08:43:50.336Z,8.82
2018-12-17T08:46:24.040Z,8.48
2018-12-17T08:48:57.826Z,9.35
2018-12-17T08:51:31.427Z,8.85
2018-12-17T08:54:05.159Z,7.72
2018-12-17T08:56:38.957Z,8.35
2018-12-17T08:59:12.672Z,9.65
2018-12-17T09:01:46.278Z,8.70
2018-12-17T09:04:20.060Z,9.50
2018-12-17T09:06:53.608Z,8.20
2018-12-17T09:09:27.470Z,8.40
2018-12-17T09:12:01.016Z,8.52
2018-12-17T09:14:34.882Z,7.28
2018-12-17T09:17:08.621Z,8.80
2018-12-17T09:19:42.308Z,21.85
2018-12-17T09:22:16.648Z,9.32
2018-12-17T09:24:50.323Z,9.10
2018-12-17T09:27:23.916Z,10.65
2018-12-17T09:29:57.710Z,8.45
2018-12-17T09:32:31.402Z,8.80
2018-12-17T09:35:04.981Z,9.30
2018-12-17T09:37:38.586Z,42.42
2018-12-17T09:40:12.425Z,10.20
2018-12-17T09:42:46.029Z,10.18
2018-12-17T09:45:19.633Z,10.70
2018-12-17T09:47:53.180Z,10.20
2018-12-17T09:50:27.536Z,9.18
2018-12-17T09:53:01.250Z,12.75
2018-12-17T09:55:36.363Z,9.35
2018-12-17T09:58:08.761Z,10.40
2018-12-17T10:00:42.455Z,10.02
2018-12-17T10:03:16.036Z,10.73
2018-12-17T10:05:49.700Z,10.85
2018-12-17T10:08:24.183Z,11.73
2018-12-17T10:10:58.616Z,9.50
2018-12-17T10:13:32.356Z,9.18
2018-12-17T10:16:06.091Z,9.27
2018-12-17T10:18:40.596Z,8.70
2018-12-17T10:21:14.257Z,9.43
2018-12-17T10:23:47.858Z,8.65
2018-12-17T10:26:22.325Z,9.70
2018-12-17T10:28:56.178Z,8.98
2018-12-17T10:31:29.842Z,8.75
2018-12-17T10:34:03.584Z,9.63
2018-12-17T10:36:38.350Z,9.18
2018-12-17T10:39:12.700Z,9.50
2018-12-17T10:41:46.321Z,8.85
2018-12-17T10:44:20.820Z,8.73
2018-12-17T10:46:54.535Z,9.73
2018-12-17T10:49:28.100Z,9.20
2018-12-17T10:52:01.834Z,9.60
2018-12-17T10:54:35.684Z,8.05
2018-12-17T10:57:09.234Z,9.48
2018-12-17T10:59:42.954Z,9.57
2018-12-17T11:02:16.511Z,9.60
2018-12-17T11:04:50.310Z,10.35
2018-12-17T11:07:24.056Z,9.82
2018-12-17T11:09:57.779Z,8.85
2018-12-17T11:12:31.565Z,10.05
2018-12-17T11:15:05.140Z,10.85
2018-12-17T11:17:38.744Z,10.00
2018-12-17T11:20:12.590Z,10.15
2018-12-17T11:22:46.264Z,10.30
2018-12-17T11:25:19.994Z,9.90
2018-12-17T11:27:53.610Z,9.07
2018-12-17T11:30:27.209Z,8.68
2018-12-17T11:33:00.957Z,9.30
2018-12-17T11:35:34.510Z,10.52
2018-12-17T11:38:08.157Z,9.57
2018-12-17T11:40:41.893Z,10.98
2018-12-17T11:43:15.423Z,9.25
2018-12-17T11:45:49.039Z,9.35
2018-12-17T11:48:22.804Z,7.55
2018-12-17T11:50:56.638Z,2.70
2018-12-17T11:53:30.321Z,3.60
2018-12-17T11:56:04.060Z,2.85
2018-12-17T11:58:37.861Z,2.40
2018-12-17T12:01:11.443Z,2.00
2018-12-17T12:03:46.072Z,2.20
2018-12-17T12:06:19.882Z,2.20
2018-12-17T12:08:53.457Z,2.17
2018-12-17T12:11:27.553Z,2.20
2018-12-17T12:14:01.159Z,2.65
2018-12-17T12:16:34.885Z,2.03
2018-12-17T12:19:09.295Z,1.98
2018-12-17T12:21:43.011Z,4.03
2018-12-17T12:24:16.730Z,1.83
2018-12-17T12:26:50.461Z,1.98
2018-12-17T12:29:24.142Z,2.72
2018-12-17T12:31:57.969Z,1.73
2018-12-17T12:34:31.672Z,1.83
2018-12-17T12:37:05.468Z,1.70
2018-12-17T12:39:39.244Z,2.60
2018-12-17T12:42:13.060Z,1.67
2018-12-17T12:44:46.855Z,2.10
2018-12-17T12:47:20.406Z,1.73
2018-12-17T12:49:54.747Z,1.40
2018-12-17T12:52:28.293Z,2.00
2018-12-17T12:55:02.010Z,2.00
2018-12-17T12:57:35.543Z,1.67
2018-12-17T13:00:09.234Z,1.55
2018-12-17T13:02:43.565Z,2.10
2018-12-17T13:05:17.278Z,2.30
2018-12-17T13:07:51.824Z,1.52
2018-12-17T13:10:25.671Z,3.50
2018-12-17T13:12:59.203Z,1.70
2018-12-17T13:15:33.035Z,1.77
2018-12-17T13:18:06.789Z,1.12
2018-12-17T13:20:40.495Z,1.52
2018-12-17T13:23:14.091Z,0.95
2018-12-17T13:25:47.865Z,1.58
2018-12-17T13:28:21.617Z,1.10
2018-12-17T13:30:56.147Z,1.62
2018-12-17T13:33:29.978Z,1.50
2018-12-17T13:36:03.612Z,4.62
2018-12-17T13:38:37.956Z,2.03
2018-12-17T13:41:11.691Z,1.25
2018-12-17T13:43:45.389Z,1.65
2018-12-17T13:46:19.179Z,3.22
2018-12-17T13:48:53.602Z,1.90
2018-12-17T13:51:33.282Z,2.17
2018-12-17T13:54:06.969Z,1.92
2018-12-17T13:56:40.773Z,2.05
2018-12-17T13:59:15.892Z,1.12
2018-12-17T14:01:51.553Z,1.60
2018-12-17T14:04:23.216Z,1.65
2018-12-17T14:06:56.800Z,2.97
2018-12-17T14:09:31.247Z,2.80
2018-12-17T14:12:05.692Z,2.20
2018-12-17T14:14:39.400Z,2.30
2018-12-17T14:17:18.710Z,1.95
2018-12-17T14:19:58.055Z,2.20
2018-12-17T14:22:32.427Z,2.00
2018-12-17T14:25:06.164Z,2.80
2018-12-17T14:27:39.757Z,2.00
2018-12-17T14:30:13.551Z,2.60
2018-12-17T14:32:47.283Z,1.62
2018-12-17T14:35:21.056Z,2.75
2018-12-17T14:38:00.499Z,1.70
2018-12-17T14:40:34.172Z,2.50
2018-12-17T14:43:07.935Z,3.42
2018-12-17T14:45:41.668Z,2.30
2018-12-17T14:48:15.302Z,1.95
2018-12-17T14:50:48.911Z,1.95
2018-12-17T14:53:22.648Z,3.25
2018-12-17T14:55:56.334Z,2.30
2018-12-17T14:58:29.946Z,2.47
2018-12-17T15:01:03.674Z,2.15
2018-12-17T15:03:37.524Z,2.20
2018-12-17T15:06:11.255Z,2.67
2018-12-17T15:08:45.029Z,2.35
2018-12-17T15:11:18.564Z,2.42
2018-12-17T15:13:52.148Z,2.35
2018-12-17T15:16:25.846Z,2.33
2018-12-17T15:19:00.395Z,2.80
2018-12-17T15:21:33.997Z,5.43
2018-12-17T15:24:07.575Z,1.20
2018-12-17T15:26:42.058Z,1.75
2018-12-17T15:29:15.949Z,1.50
2018-12-17T15:31:49.513Z,1.65
2018-12-17T15:34:23.281Z,1.50
2018-12-17T15:36:57.047Z,1.98
2018-12-17T15:39:30.741Z,2.92
2018-12-17T15:42:04.347Z,4.03
2018-12-17T15:44:37.959Z,3.85
2018-12-17T15:47:12.225Z,2.33
2018-12-17T15:49:46.000Z,2.10
2018-12-17T15:52:19.772Z,2.15
2018-12-17T15:54:53.569Z,1.40
2018-12-17T15:57:27.363Z,1.75
2018-12-17T16:00:00.954Z,1.50
2018-12-17T16:02:35.375Z,1.50
2018-12-17T16:05:08.992Z,1.45
2018-12-17T16:07:42.729Z,2.10
2018-12-17T16:10:16.297Z,2.60
2018-12-17T16:12:49.876Z,2.83
2018-12-17T16:15:23.547Z,6.80
2018-12-17T16:17:57.096Z,7.90
2018-12-17T16:20:30.871Z,4.70
2018-12-17T16:23:04.678Z,2.55
2018-12-17T16:25:38.192Z,1.90
2018-12-17T16:28:11.791Z,1.45
2018-12-17T16:30:45.485Z,2.10
2018-12-17T16:33:19.273Z,1.62
2018-12-17T16:35:53.772Z,1.42
2018-12-17T16:38:27.497Z,1.25
2018-12-17T16:41:01.329Z,1.37
2018-12-17T16:43:35.034Z,1.92
2018-12-17T16:46:08.812Z,1.23
2018-12-17T16:48:42.395Z,1.55
2018-12-17T16:51:16.985Z,1.45
2018-12-17T16:53:50.579Z,1.37
2018-12-17T16:56:24.339Z,1.25
2018-12-17T16:58:58.104Z,1.77
2018-12-17T17:01:31.824Z,1.92
2018-12-17T17:04:05.393Z,1.92
2018-12-17T17:06:39.202Z,2.35
2018-12-17T17:09:12.943Z,1.98
2018-12-17T17:11:46.693Z,1.87
2018-12-17T17:14:20.555Z,2.28
2018-12-17T17:16:54.302Z,2.30
2018-12-17T17:19:27.840Z,1.70
2018-12-17T17:22:01.501Z,2.00
2018-12-17T17:24:35.974Z,4.65
2018-12-17T17:27:09.587Z,2.37
2018-12-17T17:29:43.145Z,1.70
2018-12-17T17:32:16.829Z,2.50
2018-12-17T17:34:50.443Z,2.25
2018-12-17T17:37:24.907Z,1.77
2018-12-17T17:39:58.488Z,2.03
2018-12-17T17:42:32.208Z,2.30
2018-12-17T17:45:05.981Z,1.62
2018-12-17T17:47:39.582Z,1.98
2018-12-17T17:50:13.280Z,2.72
2018-12-17T17:52:46.877Z,2.15
2018-12-17T17:55:20.607Z,1.95
2018-12-17T17:57:54.236Z,1.95
2018-12-17T18:00:28.024Z,1.65
2018-12-17T18:03:01.625Z,2.55
2018-12-17T18:05:35.235Z,2.30
2018-12-17T18:08:09.823Z,1.98
2018-12-17T18:10:44.277Z,2.15
2018-12-17T18:13:17.877Z,2.20
2018-12-17T18:15:52.304Z,1.90
2018-12-17T18:18:25.889Z,2.60
2018-12-17T18:20:59.679Z,1.90
2018-12-17T18:23:33.255Z,2.08
2018-12-17T18:26:07.660Z,2.10
2018-12-17T18:28:41.315Z,2.40
2018-12-17T18:31:15.636Z,2.70
2018-12-17T18:33:49.446Z,2.42
2018-12-17T18:36:23.158Z,2.40
2018-12-17T18:38:56.856Z,1.85
2018-12-17T18:41:31.482Z,1.75
2018-12-17T18:44:05.218Z,2.97
2018-12-17T18:46:38.796Z,2.37
2018-12-17T18:49:12.485Z,2.67
2018-12-17T18:51:46.138Z,2.22
2018-12-17T18:54:19.708Z,1.60
2018-12-17T18:56:53.369Z,2.17
2018-12-17T18:59:27.128Z,2.35
2018-12-17T19:02:00.703Z,2.85
2018-12-17T19:04:34.436Z,1.98
2018-12-17T19:07:08.808Z,2.58
2018-12-17T19:09:42.468Z,2.15
2018-12-17T19:12:16.943Z,2.72
2018-12-17T19:14:50.721Z,3.62
2018-12-17T19:17:24.695Z,2.50
2018-12-17T19:19:58.434Z,4.53
2018-12-17T19:22:32.049Z,4.07
2018-12-17T19:25:05.661Z,3.35
2018-12-17T19:27:39.187Z,3.33
2018-12-17T19:30:12.775Z,2.83
2018-12-17T19:32:47.244Z,2.75
2018-12-17T19:35:20.798Z,3.60
2018-12-17T19:37:54.338Z,2.30
2018-12-17T19:40:27.928Z,3.55
2018-12-17T19:43:01.610Z,3.40
2018-12-17T19:45:35.263Z,5.60
2018-12-17T19:48:08.871Z,3.08
2018-12-17T19:50:43.374Z,3.35
2018-12-17T19:53:17.157Z,2.87
2018-12-17T19:55:50.801Z,3.20
2018-12-17T19:58:24.354Z,3.80
2018-12-17T20:00:58.024Z,3.05
2018-12-17T20:03:31.628Z,3.60
2018-12-17T20:06:05.243Z,3.08
2018-12-17T20:08:38.928Z,2.80
2018-12-17T20:11:12.769Z,2.55
2018-12-17T20:13:46.316Z,2.70
2018-12-17T20:16:19.958Z,3.47
2018-12-17T20:18:53.732Z,3.28
2018-12-17T20:21:27.317Z,3.53
2018-12-17T20:24:00.927Z,3.55
2018-12-17T20:26:34.443Z,4.28
2018-12-17T20:29:08.153Z,3.42
2018-12-17T20:31:41.674Z,3.55
2018-12-17T20:34:15.510Z,3.45
2018-12-17T20:36:49.255Z,3.22
2018-12-17T20:39:22.929Z,3.40
2018-12-17T20:41:57.259Z,4.03
2018-12-17T20:44:31.696Z,3.15
2018-12-17T20:47:06.095Z,4.22
2018-12-17T20:49:40.403Z,4.03
2018-12-17T20:52:14.875Z,3.65
2018-12-17T20:54:49.261Z,2.62
2018-12-17T20:57:23.011Z,3.20
2018-12-17T20:59:56.532Z,3.55
2018-12-17T21:02:30.118Z,3.42
2018-12-17T21:05:03.909Z,2.85
2018-12-17T21:07:37.520Z,2.80
2018-12-17T21:10:11.189Z,2.72
2018-12-17T21:12:45.487Z,2.72
2018-12-17T21:15:19.090Z,3.00
2018-12-17T21:17:52.812Z,3.22
2018-12-17T21:20:26.412Z,3.62
2018-12-17T21:23:00.000Z,2.58
2018-12-17T21:25:33.632Z,3.05
2018-12-17T21:28:07.225Z,3.15
2018-12-17T21:30:40.869Z,3.00
2018-12-17T21:33:14.629Z,3.10
2018-12-17T21:35:49.045Z,2.62
2018-12-17T21:38:22.538Z,2.90
2018-12-17T21:40:56.864Z,2.33
2018-12-17T21:43:36.032Z,3.12
2018-12-17T21:46:04.466Z,2.37
2018-12-17T21:48:38.083Z,2.87
2018-12-17T21:51:11.895Z,2.80
2018-12-17T21:53:45.557Z,2.40
2018-12-17T21:56:19.269Z,3.03
2018-12-17T21:58:53.876Z,2.72
2018-12-17T22:01:27.563Z,3.30
2018-12-17T22:04:02.617Z,3.08
2018-12-17T22:06:36.301Z,3.30
2018-12-17T22:09:09.883Z,3.00
2018-12-17T22:11:43.702Z,3.22
2018-12-17T22:14:17.463Z,2.28
2018-12-17T22:16:51.062Z,2.70
2018-12-17T22:19:25.393Z,2.55
2018-12-17T22:21:59.109Z,2.90
2018-12-17T22:24:32.766Z,2.30
2018-12-17T22:27:06.367Z,2.00
2018-12-17T22:29:39.952Z,2.37
2018-12-17T22:32:13.715Z,2.60
2018-12-17T22:34:47.359Z,1.90
2018-12-17T22:37:21.704Z,1.85
2018-12-17T22:39:55.424Z,2.55
2018-12-17T22:42:29.208Z,2.58
2018-12-17T22:45:02.781Z,1.85
2018-12-17T22:47:36.414Z,2.80
2018-12-17T22:50:10.040Z,2.60
2018-12-17T22:52:43.743Z,2.80
2018-12-17T22:55:17.597Z,2.15
2018-12-17T22:57:51.218Z,1.83
2018-12-17T23:00:24.834Z,1.45
2018-12-17T23:02:58.552Z,2.20
2018-12-17T23:05:32.126Z,2.20
2018-12-17T23:08:05.707Z,2.15
2018-12-17T23:10:51.893Z,1.55
2018-12-17T23:13:37.488Z,2.15
2018-12-17T23:16:23.084Z,2.85
2018-12-17T23:18:56.187Z,2.08
2018-12-17T23:21:29.927Z,2.35
2018-12-17T23:24:03.568Z,2.00
2018-12-17T23:26:37.916Z,2.70
2018-12-17T23:29:11.530Z,2.30
2018-12-17T23:31:45.090Z,2.17
2018-12-17T23:34:18.711Z,2.42
2018-12-17T23:36:52.541Z,1.85
2018-12-17T23:39:27.335Z,1.80
2018-12-17T23:42:00.932Z,1.62
2018-12-17T23:44:35.600Z,2.08
2018-12-17T23:47:10.000Z,2.30
2018-12-17T23:49:43.575Z,1.30
2018-12-17T23:52:18.130Z,1.52
2018-12-17T23:54:51.850Z,1.80
2018-12-17T23:57:25.398Z,1.67
2018-12-17T23:59:59.274Z,1.65
